Time;durP1;ratioP1;P1;durP2;ratioP2;P2;SDS_P1;SDS_P2;PMS_P1;PMS_P2;Temp;Humidity;BMP_temperature;BMP_pressure;BME280_temperature;BME280_humidity;BME280_pressure;Samples;Min_cycle;Max_cycle;Signal;HPM_P1;HPM_P2
2024/01/14 00:01:54;;;;;;;42.47;17.30;;;-3.20;79.30;;;;;;5051765;28;20274;-86
2024/01/14 00:04:21;;;;;;;37.20;17.33;;;-3.20;79.00;;;;;;5051888;27;20191;-86
2024/01/14 00:06:49;;;;;;;43.67;15.55;;;-3.20;80.30;;;;;;5051808;28;20298;-86
2024/01/14 00:09:16;;;;;;;41.15;15.75;;;-3.20;80.80;;;;;;5051881;28;20195;-86
2024/01/14 00:11:43;;;;;;;42.28;17.90;;;-3.20;81.10;;;;;;5051766;28;20281;-86
2024/01/14 00:14:12;;;;;;;33.53;14.50;;;-3.10;81.00;;;;;;5051740;28;20716;-85
2024/01/14 00:16:39;;;;;;;37.08;14.93;;;-3.10;80.50;;;;;;5051606;28;20297;-86
2024/01/14 00:19:05;;;;;;;30.38;14.65;;;-3.00;80.20;;;;;;5051659;28;20716;-87
2024/01/14 00:21:33;;;;;;;39.70;17.05;;;-3.00;80.10;;;;;;5052000;28;20191;-86
2024/01/14 00:24:00;;;;;;;33.50;16.05;;;-3.10;80.20;;;;;;5050110;28;20221;-86
2024/01/14 00:26:28;;;;;;;37.17;16.88;;;-3.10;80.50;;;;;;5051762;28;20195;-85
2024/01/14 00:28:57;;;;;;;37.40;16.35;;;-3.10;80.20;;;;;;5051710;28;20236;-85
2024/01/14 00:31:25;;;;;;;36.38;15.00;;;-3.20;81.50;;;;;;5051848;28;20198;-86
2024/01/14 00:33:52;;;;;;;33.83;14.05;;;-3.30;82.10;;;;;;5051683;28;20282;-85
2024/01/14 00:36:19;;;;;;;34.88;15.43;;;-3.20;82.40;;;;;;5051542;28;20247;-85
2024/01/14 00:38:46;;;;;;;32.83;14.60;;;-3.20;82.10;;;;;;5051689;28;20277;-86
2024/01/14 00:41:13;;;;;;;36.22;15.70;;;-3.20;82.60;;;;;;5051289;28;20718;-85
2024/01/14 00:43:40;;;;;;;44.33;17.25;;;-3.20;83.00;;;;;;5051223;28;20692;-86
2024/01/14 00:46:07;;;;;;;31.85;13.40;;;-3.10;82.90;;;;;;5049784;28;20219;-86
2024/01/14 00:48:36;;;;;;;29.80;15.40;;;-3.10;82.60;;;;;;5051276;28;20647;-85
2024/01/14 00:51:02;;;;;;;37.05;14.93;;;-3.00;82.70;;;;;;5051432;28;20604;-86
2024/01/14 00:53:29;;;;;;;33.47;13.65;;;-3.00;82.20;;;;;;5051136;28;20683;-86
2024/01/14 00:55:56;;;;;;;33.50;16.67;;;-3.00;81.80;;;;;;5051311;28;20194;-85
2024/01/14 00:58:23;;;;;;;33.42;13.80;;;-2.90;81.60;;;;;;5050950;28;20222;-86
2024/01/14 01:00:50;;;;;;;31.35;14.73;;;-2.90;80.80;;;;;;5050752;28;20565;-85
2024/01/14 01:03:17;;;;;;;34.17;15.95;;;-2.90;80.40;;;;;;5050949;28;20273;-85
2024/01/14 01:05:45;;;;;;;29.17;12.52;;;-2.90;79.90;;;;;;5050856;28;20283;-86
2024/01/14 01:08:12;;;;;;;30.05;12.32;;;-2.80;79.10;;;;;;5031214;28;20235;-85
2024/01/14 01:10:39;;;;;;;32.28;13.98;;;-2.90;78.50;;;;;;5030988;28;20278;-85
2024/01/14 01:13:06;;;;;;;27.60;13.50;;;-2.90;78.30;;;;;;5031271;28;20227;-86
2024/01/14 01:15:33;;;;;;;33.20;14.05;;;-2.90;78.30;;;;;;5038357;28;20248;-86
2024/01/14 01:18:00;;;;;;;39.35;16.10;;;-2.90;78.10;;;;;;5050983;28;20214;-86
2024/01/14 01:20:27;;;;;;;29.30;14.60;;;-2.90;78.00;;;;;;5050721;28;20274;-85
2024/01/14 01:22:56;;;;;;;25.10;14.48;;;-3.00;78.10;;;;;;5050750;28;20278;-86
2024/01/14 01:25:23;;;;;;;33.75;16.45;;;-3.00;78.10;;;;;;5050894;28;20227;-85
2024/01/14 01:27:49;;;;;;;30.63;13.73;;;-3.00;77.40;;;;;;5050916;27;20234;-85
2024/01/14 01:30:16;;;;;;;30.77;14.43;;;-3.10;77.70;;;;;;5050509;28;20226;-86
2024/01/14 01:32:43;;;;;;;28.73;13.32;;;-3.00;78.20;;;;;;5050504;28;20286;-85
2024/01/14 01:35:10;;;;;;;29.63;15.32;;;-3.00;78.10;;;;;;5050437;28;20294;-85
2024/01/14 01:37:37;;;;;;;33.40;15.32;;;-3.00;78.30;;;;;;5050951;28;20301;-86
2024/01/14 01:40:09;;;;;;;29.75;13.10;;;-3.00;78.30;;;;;;5050304;28;20278;-86
2024/01/14 01:42:35;;;;;;;25.33;13.05;;;-3.00;78.30;;;;;;5050470;28;20175;-85
2024/01/14 01:45:03;;;;;;;25.83;13.10;;;-2.90;78.10;;;;;;5050321;28;20277;-85
2024/01/14 01:47:30;;;;;;;38.72;14.38;;;-2.90;77.60;;;;;;5050775;28;20225;-85
2024/01/14 01:49:57;;;;;;;30.63;14.25;;;-2.90;77.30;;;;;;5050278;28;20282;-87
2024/01/14 01:52:25;;;;;;;36.63;13.10;;;-2.90;77.00;;;;;;5050604;28;20358;-85
2024/01/14 01:54:52;;;;;;;27.63;12.68;;;-2.90;77.10;;;;;;5049873;28;20239;-86
2024/01/14 01:57:22;;;;;;;28.73;13.70;;;-2.90;76.90;;;;;;5050566;28;20318;-85
2024/01/14 01:59:49;;;;;;;31.30;14.27;;;-2.90;76.70;;;;;;5050311;28;20278;-86
2024/01/14 02:02:17;;;;;;;36.92;16.75;;;-2.90;76.20;;;;;;5050147;28;20283;-85
2024/01/14 02:04:45;;;;;;;36.33;14.35;;;-2.90;76.10;;;;;;5050379;28;20277;-86
2024/01/14 02:07:13;;;;;;;21.15;12.77;;;-2.90;76.30;;;;;;5050274;28;20282;-86
2024/01/14 02:09:40;;;;;;;33.83;13.98;;;-2.90;76.20;;;;;;5050037;27;20187;-85
2024/01/14 02:12:07;;;;;;;23.35;13.10;;;-2.90;76.10;;;;;;5049372;28;20286;-85
2024/01/14 02:14:39;;;;;;;34.05;13.18;;;-2.90;75.50;;;;;;5050450;28;20590;-85
2024/01/14 02:17:06;;;;;;;36.72;15.55;;;-2.90;75.30;;;;;;5050203;28;20290;-86
2024/01/14 02:19:33;;;;;;;29.83;13.25;;;-2.90;75.10;;;;;;5050062;27;20194;-86
2024/01/14 02:22:10;;;;;;;35.53;15.80;;;-3.00;75.20;;;;;;5048690;28;20732;-86
2024/01/14 02:24:39;;;;;;;30.73;15.63;;;-3.00;75.40;;;;;;5050358;28;20265;-85
2024/01/14 02:27:06;;;;;;;27.00;14.43;;;-3.00;75.60;;;;;;5049755;28;20259;-86
2024/01/14 02:29:35;;;;;;;31.02;14.02;;;-3.00;75.60;;;;;;5049835;28;20621;-85
2024/01/14 02:32:02;;;;;;;35.00;14.32;;;-3.00;75.70;;;;;;5049617;28;20600;-86
2024/01/14 02:34:29;;;;;;;29.10;12.00;;;-3.00;75.30;;;;;;5049614;28;20244;-86
2024/01/14 02:36:56;;;;;;;36.38;14.93;;;-3.00;75.20;;;;;;5050033;28;20227;-85
2024/01/14 02:39:23;;;;;;;32.85;13.65;;;-3.00;74.40;;;;;;5049302;28;20226;-86
2024/01/14 02:41:51;;;;;;;30.13;14.23;;;-3.10;74.70;;;;;;5049974;28;20274;-85
2024/01/14 02:44:18;;;;;;;27.17;13.75;;;-3.10;75.00;;;;;;5049434;28;20584;-85
2024/01/14 02:46:46;;;;;;;22.98;13.30;;;-3.10;74.50;;;;;;5049053;28;20256;-86
2024/01/14 02:49:13;;;;;;;30.83;13.55;;;-3.20;73.60;;;;;;5049497;28;20245;-86
2024/01/14 02:51:39;;;;;;;30.70;14.18;;;-3.30;74.40;;;;;;5049563;27;20195;-86
2024/01/14 02:54:06;;;;;;;39.65;15.82;;;-3.40;75.40;;;;;;5049493;28;20621;-85
2024/01/14 02:56:33;;;;;;;35.72;13.40;;;-3.50;76.20;;;;;;5049442;28;20222;-86
2024/01/14 02:59:01;;;;;;;29.73;13.15;;;-3.50;76.40;;;;;;5049382;28;20274;-86
2024/01/14 03:01:28;;;;;;;24.92;12.82;;;-3.50;76.60;;;;;;5049566;28;20222;-86
2024/01/14 03:03:55;;;;;;;31.88;13.40;;;-3.50;75.20;;;;;;5049230;28;20278;-86
2024/01/14 03:06:22;;;;;;;30.20;13.10;;;-3.50;75.20;;;;;;5049216;28;20285;-87
2024/01/14 03:08:49;;;;;;;31.58;12.13;;;-3.60;75.20;;;;;;5049267;28;20191;-87
2024/01/14 03:11:16;;;;;;;28.30;12.32;;;-3.70;75.30;;;;;;5048953;28;20236;-85
2024/01/14 03:13:44;;;;;;;24.73;12.02;;;-3.70;74.90;;;;;;5049498;28;20290;-86
2024/01/14 03:16:12;;;;;;;31.73;14.15;;;-3.80;74.60;;;;;;5049469;28;20199;-85
2024/01/14 03:18:39;;;;;;;27.25;10.18;;;-3.90;75.10;;;;;;5049249;28;20305;-87
2024/01/14 03:21:08;;;;;;;26.08;10.93;;;-4.00;75.40;;;;;;5049071;28;20278;-87
2024/01/14 03:23:34;;;;;;;17.05;10.68;;;-4.00;75.60;;;;;;5049128;28;20629;-85
2024/01/14 03:26:02;;;;;;;19.88;9.60;;;-4.10;75.10;;;;;;5052775;28;20273;-85
2024/01/14 03:28:29;;;;;;;23.67;10.70;;;-4.10;75.20;;;;;;5052759;28;20277;-85
2024/01/14 03:30:56;;;;;;;26.75;12.82;;;-4.10;75.00;;;;;;5052849;28;20190;-85
2024/01/14 03:33:24;;;;;;;18.85;9.75;;;-4.20;74.90;;;;;;5052580;28;20197;-86
2024/01/14 03:35:51;;;;;;;21.70;10.10;;;-4.20;73.30;;;;;;5051846;28;20286;-86
2024/01/14 03:38:18;;;;;;;28.48;11.80;;;-4.30;73.40;;;;;;5052317;28;20298;-86
2024/01/14 03:40:45;;;;;;;17.45;10.70;;;-4.40;73.90;;;;;;5052198;28;20278;-85
2024/01/14 03:43:12;;;;;;;20.58;10.52;;;-4.40;74.40;;;;;;5052194;28;20270;-85
2024/01/14 03:45:39;;;;;;;17.70;11.02;;;-4.40;74.10;;;;;;5052227;28;20282;-85
2024/01/14 03:48:06;;;;;;;28.05;11.10;;;-4.50;74.40;;;;;;5052443;28;20277;-85
2024/01/14 03:50:35;;;;;;;21.10;10.20;;;-4.60;73.20;;;;;;5052043;28;20660;-85
2024/01/14 03:53:02;;;;;;;20.35;10.20;;;-4.70;72.70;;;;;;5052559;28;20286;-86
2024/01/14 03:55:28;;;;;;;22.77;10.02;;;-4.80;72.90;;;;;;5052014;28;20278;-86
2024/01/14 03:57:55;;;;;;;16.05;8.48;;;-4.80;73.00;;;;;;5052081;28;20218;-85
2024/01/14 04:00:22;;;;;;;20.42;10.63;;;-4.90;73.00;;;;;;5051998;28;20286;-85
2024/01/14 04:02:49;;;;;;;25.75;11.80;;;-4.90;73.00;;;;;;5051839;28;20716;-85
2024/01/14 04:05:16;;;;;;;16.42;9.05;;;-4.90;72.90;;;;;;5052302;28;20222;-85
2024/01/14 04:07:44;;;;;;;24.20;11.18;;;-5.00;72.60;;;;;;5051925;28;20270;-85
2024/01/14 04:10:12;;;;;;;20.30;10.35;;;-5.00;72.40;;;;;;5052108;28;20195;-85
2024/01/14 04:12:41;;;;;;;23.85;12.18;;;-5.10;72.00;;;;;;5052134;28;20201;-85
2024/01/14 04:15:08;;;;;;;27.38;11.45;;;-5.10;71.60;;;;;;5051667;28;20632;-85
2024/01/14 04:17:36;;;;;;;27.52;11.45;;;-5.10;71.30;;;;;;5051564;28;20759;-85
2024/01/14 04:20:03;;;;;;;22.67;9.63;;;-5.10;71.00;;;;;;5051956;28;20286;-86
2024/01/14 04:22:30;;;;;;;18.40;9.60;;;-5.20;70.60;;;;;;5051666;28;20195;-85
2024/01/14 04:24:59;;;;;;;31.98;11.13;;;-5.30;70.10;;;;;;5051918;28;20274;-85
2024/01/14 04:27:26;;;;;;;22.90;10.00;;;-5.30;70.10;;;;;;5051485;28;20282;-85
2024/01/14 04:29:53;;;;;;;28.95;12.43;;;-5.30;70.30;;;;;;5051811;28;20274;-86
2024/01/14 04:32:19;;;;;;;23.85;12.27;;;-5.40;70.40;;;;;;5051427;28;20226;-85
2024/01/14 04:34:49;;;;;;;26.33;10.02;;;-5.40;69.40;;;;;;5050926;28;20247;-84
2024/01/14 04:37:16;;;;;;;26.58;11.77;;;-5.50;68.80;;;;;;5051654;28;20215;-85
2024/01/14 04:39:43;;;;;;;26.65;11.63;;;-5.60;68.10;;;;;;5051318;28;20690;-86
2024/01/14 04:42:11;;;;;;;25.33;12.18;;;-5.60;67.50;;;;;;5051684;28;20246;-85
2024/01/14 04:44:38;;;;;;;25.52;10.63;;;-5.70;67.80;;;;;;5051197;28;20278;-85
2024/01/14 04:47:05;;;;;;;22.27;9.80;;;-5.80;68.00;;;;;;5050996;28;20262;-85
2024/01/14 04:49:32;;;;;;;21.83;10.65;;;-5.80;68.70;;;;;;5051322;28;20277;-85
2024/01/14 04:51:59;;;;;;;23.60;11.65;;;-5.80;68.40;;;;;;5051439;28;20614;-85
2024/01/14 04:54:26;;;;;;;29.17;12.45;;;-5.90;68.40;;;;;;5050712;28;20195;-86
2024/01/14 04:56:53;;;;;;;26.00;12.73;;;-5.90;68.80;;;;;;5050712;28;20672;-85
2024/01/14 04:59:21;;;;;;;31.08;11.77;;;-5.90;69.30;;;;;;5051226;28;20246;-85
2024/01/14 05:01:48;;;;;;;23.63;11.23;;;-5.90;69.60;;;;;;5051253;28;20623;-85
2024/01/14 05:04:15;;;;;;;24.42;11.70;;;-5.90;69.40;;;;;;5051077;28;20283;-85
2024/01/14 05:06:42;;;;;;;20.58;9.85;;;-6.00;69.50;;;;;;5051247;28;20903;-85
2024/01/14 05:09:09;;;;;;;27.65;10.40;;;-5.90;69.60;;;;;;5051013;28;20655;-85
2024/01/14 05:11:36;;;;;;;22.15;10.07;;;-5.90;69.60;;;;;;5050978;28;20263;-85
2024/01/14 05:14:03;;;;;;;22.30;9.40;;;-5.90;69.50;;;;;;5051174;28;20286;-86
2024/01/14 05:16:31;;;;;;;29.75;10.05;;;-5.80;69.60;;;;;;5051064;28;20301;-85
2024/01/14 05:19:01;;;;;;;26.25;11.95;;;-5.80;69.50;;;;;;5050447;28;20214;-86
2024/01/14 05:21:28;;;;;;;27.77;12.77;;;-5.80;70.70;;;;;;5050826;28;20277;-85
2024/01/14 05:23:55;;;;;;;19.02;9.77;;;-5.80;69.50;;;;;;5051115;28;20202;-85
2024/01/14 05:26:24;;;;;;;26.70;11.88;;;-5.80;68.20;;;;;;5051002;28;20298;-85
2024/01/14 05:28:51;;;;;;;26.05;11.38;;;-5.90;67.30;;;;;;5051786;27;20210;-85
2024/01/14 05:31:18;;;;;;;20.85;9.45;;;-5.80;67.40;;;;;;5050580;28;20296;-85
2024/01/14 05:33:46;;;;;;;22.55;10.43;;;-5.80;68.30;;;;;;5050776;28;20273;-86
2024/01/14 05:36:13;;;;;;;23.23;10.00;;;-5.70;68.90;;;;;;5050719;28;20528;-85
2024/01/14 05:38:43;;;;;;;24.48;11.48;;;-5.70;68.80;;;;;;5050654;28;20299;-85
2024/01/14 05:41:12;;;;;;;23.48;10.55;;;-5.60;68.40;;;;;;5050715;28;20222;-85
2024/01/14 05:43:39;;;;;;;25.50;12.35;;;-5.60;67.80;;;;;;5050071;28;20648;-85
2024/01/14 05:46:06;;;;;;;30.20;12.85;;;-5.50;67.70;;;;;;5050117;28;20231;-85
2024/01/14 05:48:34;;;;;;;25.95;12.98;;;-5.50;68.10;;;;;;5050004;28;20274;-85
2024/01/14 05:51:02;;;;;;;24.77;9.85;;;-5.50;68.60;;;;;;5050268;28;20190;-85
2024/01/14 05:53:30;;;;;;;25.17;10.50;;;-5.40;68.30;;;;;;5050279;28;20286;-85
2024/01/14 05:55:57;;;;;;;21.20;11.55;;;-5.40;67.40;;;;;;5050321;28;20691;-85
2024/01/14 05:58:24;;;;;;;21.95;10.57;;;-5.40;66.90;;;;;;5050493;28;20583;-85
2024/01/14 06:00:51;;;;;;;21.98;11.90;;;-5.40;66.90;;;;;;5050138;28;20201;-86
2024/01/14 06:03:29;;;;;;;31.33;13.40;;;-5.40;67.10;;;;;;5050551;28;20199;-85
2024/01/14 06:05:58;;;;;;;42.50;14.77;;;-5.30;67.60;;;;;;5050014;27;20198;-85
2024/01/14 06:08:49;;;;;;;34.67;14.38;;;-5.30;68.10;;;;;;5049807;28;20235;-85
2024/01/14 06:11:16;;;;;;;24.85;11.70;;;-5.20;68.70;;;;;;5049790;28;20182;-85
2024/01/14 06:13:43;;;;;;;39.58;13.68;;;-5.20;68.90;;;;;;5050050;28;20222;-85
2024/01/14 06:16:10;;;;;;;25.25;12.85;;;-5.10;68.80;;;;;;5050107;28;20727;-85
2024/01/14 06:18:38;;;;;;;30.27;12.48;;;-5.10;68.80;;;;;;5049943;28;20267;-85
2024/01/14 06:21:05;;;;;;;32.40;14.25;;;-5.10;69.20;;;;;;5050309;28;20282;-85
2024/01/14 06:23:32;;;;;;;29.08;13.30;;;-5.10;69.90;;;;;;5049935;28;20648;-85
2024/01/14 06:26:00;;;;;;;24.95;11.88;;;-5.10;70.50;;;;;;5049907;28;20190;-85
2024/01/14 06:28:27;;;;;;;30.50;13.05;;;-5.10;71.30;;;;;;5050111;28;20241;-85
2024/01/14 06:30:58;;;;;;;39.40;15.35;;;-5.00;71.70;;;;;;5049781;28;20238;-86
2024/01/14 06:33:25;;;;;;;41.08;15.18;;;-5.00;72.10;;;;;;5049909;28;20532;-85
2024/01/14 06:35:52;;;;;;;41.20;15.45;;;-5.00;72.40;;;;;;5050045;28;20286;-85
2024/01/14 06:38:19;;;;;;;47.70;15.02;;;-4.90;72.40;;;;;;5050070;28;20297;-85
2024/01/14 06:40:46;;;;;;;38.45;16.05;;;-4.90;72.10;;;;;;5050106;28;20641;-85
2024/01/14 06:43:14;;;;;;;26.55;12.80;;;-4.90;72.40;;;;;;5050029;28;20274;-85
2024/01/14 06:45:41;;;;;;;32.67;16.13;;;-4.90;72.80;;;;;;5049748;28;20245;-86
2024/01/14 06:48:08;;;;;;;31.67;15.60;;;-4.90;72.80;;;;;;5049607;28;20238;-85
2024/01/14 06:50:35;;;;;;;27.67;14.07;;;-4.90;72.50;;;;;;5049547;28;20721;-85
2024/01/14 06:53:03;;;;;;;35.25;14.43;;;-5.10;73.00;;;;;;5048869;28;20275;-85
2024/01/14 06:55:30;;;;;;;27.77;13.45;;;-5.10;73.80;;;;;;5049207;28;20218;-84
2024/01/14 06:57:56;;;;;;;32.13;15.13;;;-5.10;74.70;;;;;;5049992;28;20223;-85
2024/01/14 07:00:25;;;;;;;35.30;13.73;;;-5.10;74.90;;;;;;5053419;28;20611;-85
2024/01/14 07:02:52;;;;;;;32.50;15.00;;;-5.10;74.90;;;;;;5052613;28;20670;-86
2024/01/14 07:05:18;;;;;;;33.08;15.02;;;-5.10;75.10;;;;;;5053444;28;20229;-85
2024/01/14 07:07:45;;;;;;;33.75;14.35;;;-5.10;76.00;;;;;;5052828;28;20278;-85
2024/01/14 07:16:47;;;;;;;33.55;15.80;;;-5.10;76.30;;;;;;4954451;22;20311;-74
2024/01/14 07:19:15;;;;;;;37.25;14.77;;;-5.00;77.00;;;;;;5112758;28;20201;-76
2024/01/14 07:21:42;;;;;;;40.83;16.08;;;-4.90;76.70;;;;;;5083708;28;20295;-76
2024/01/14 07:24:09;;;;;;;27.98;14.95;;;-4.90;76.30;;;;;;5073555;28;20522;-76
2024/01/14 07:26:36;;;;;;;33.78;15.20;;;-4.90;76.60;;;;;;5074077;28;20202;-77
2024/01/14 07:29:04;;;;;;;45.22;17.27;;;-4.80;77.10;;;;;;5074194;28;20186;-76
2024/01/14 07:31:32;;;;;;;36.17;15.32;;;-4.70;78.20;;;;;;5073202;28;20193;-76
2024/01/14 07:34:00;;;;;;;37.35;18.15;;;-4.70;76.60;;;;;;5074184;28;20186;-76
2024/01/14 07:36:28;;;;;;;37.05;14.30;;;-4.70;76.70;;;;;;5071934;28;20712;-76
2024/01/14 07:38:59;;;;;;;37.00;14.90;;;-4.60;76.70;;;;;;5071111;28;20237;-76
2024/01/14 07:41:26;;;;;;;37.80;15.55;;;-4.80;76.90;;;;;;5063497;28;20567;-74
2024/01/14 07:43:54;;;;;;;33.22;16.27;;;-4.80;77.10;;;;;;5072632;28;20198;-77
2024/01/14 07:46:21;;;;;;;33.75;15.18;;;-4.80;75.90;;;;;;5071682;28;20549;-76
2024/01/14 07:48:49;;;;;;;34.17;15.20;;;-4.90;76.30;;;;;;5071664;28;20266;-76
2024/01/14 07:51:19;;;;;;;30.17;14.05;;;-5.10;76.90;;;;;;5072435;28;20216;-76
2024/01/14 07:53:46;;;;;;;33.60;13.85;;;-5.20;78.00;;;;;;5073061;28;20213;-76
2024/01/14 07:56:19;;;;;;;39.65;15.57;;;-5.20;78.30;;;;;;5072316;28;20190;-75
2024/01/14 07:58:46;;;;;;;37.33;16.15;;;-5.20;79.10;;;;;;5072191;28;20210;-76
2024/01/14 08:01:13;;;;;;;36.45;15.52;;;-5.20;79.90;;;;;;5072500;28;20244;-76
2024/01/14 08:03:41;;;;;;;31.50;14.13;;;-5.20;80.70;;;;;;5072760;28;20214;-76
2024/01/14 08:06:09;;;;;;;37.75;15.40;;;-5.30;81.60;;;;;;5072209;28;20641;-76
2024/01/14 08:08:38;;;;;;;35.97;15.32;;;-5.20;82.30;;;;;;5072646;28;20263;-76
2024/01/14 08:11:05;;;;;;;42.22;16.42;;;-5.20;82.60;;;;;;5071689;28;20185;-76
2024/01/14 08:13:32;;;;;;;41.28;15.57;;;-5.10;83.40;;;;;;5072396;28;20616;-75
2024/01/14 08:15:59;;;;;;;42.33;15.18;;;-5.10;83.60;;;;;;5068606;28;20309;-76
2024/01/14 08:18:26;;;;;;;40.10;12.82;;;-5.10;83.30;;;;;;5069063;28;20308;-76
2024/01/14 08:20:53;;;;;;;40.10;18.13;;;-5.00;84.40;;;;;;5072688;28;20281;-76
2024/01/14 08:23:20;;;;;;;36.83;15.75;;;-4.90;83.90;;;;;;5071565;28;20194;-75
2024/01/14 08:25:48;;;;;;;33.50;14.05;;;-4.90;82.90;;;;;;5069997;28;20656;-77
2024/01/14 08:28:18;;;;;;;44.10;15.48;;;-4.90;82.60;;;;;;5068418;28;20802;-77
2024/01/14 08:30:45;;;;;;;45.72;15.65;;;-4.90;83.20;;;;;;5071379;28;20187;-76
2024/01/14 08:33:12;;;;;;;30.63;14.13;;;-4.90;83.10;;;;;;5071538;28;20204;-76
2024/01/14 08:35:39;;;;;;;47.75;16.30;;;-4.80;83.40;;;;;;5071088;28;20293;-76
2024/01/14 08:38:06;;;;;;;34.10;14.60;;;-4.70;83.00;;;;;;5071408;28;20285;-76
2024/01/14 08:40:33;;;;;;;38.85;14.75;;;-4.60;82.70;;;;;;5072095;28;20307;-77
2024/01/14 08:43:01;;;;;;;33.28;14.73;;;-4.60;83.30;;;;;;5071271;28;20609;-76
2024/01/14 08:45:28;;;;;;;45.33;17.98;;;-4.60;82.80;;;;;;5071380;28;20286;-76
2024/01/14 08:47:55;;;;;;;34.28;15.88;;;-4.60;83.40;;;;;;5071153;28;20197;-76
2024/01/14 08:50:22;;;;;;;40.35;17.42;;;-4.60;83.50;;;;;;5071487;28;20232;-76
2024/01/14 08:52:49;;;;;;;42.83;15.05;;;-4.40;84.70;;;;;;5070668;28;20627;-76
2024/01/14 08:55:16;;;;;;;42.33;16.75;;;-4.30;83.80;;;;;;5071550;28;20222;-76
2024/01/14 08:57:43;;;;;;;37.13;13.68;;;-4.20;84.20;;;;;;5071224;28;20617;-76
2024/01/14 09:00:12;;;;;;;36.55;14.50;;;-4.00;83.90;;;;;;5071004;28;20308;-76
2024/01/14 09:02:41;;;;;;;37.33;15.20;;;-3.90;83.10;;;;;;5070421;28;20214;-75
2024/01/14 09:05:08;;;;;;;37.65;15.35;;;-3.80;82.40;;;;;;5071122;28;20198;-77
2024/01/14 09:07:34;;;;;;;27.50;13.50;;;-3.60;81.80;;;;;;5071015;28;20293;-76
2024/01/14 09:10:01;;;;;;;32.28;14.55;;;-3.50;81.10;;;;;;5070727;28;20288;-74
2024/01/14 09:12:29;;;;;;;30.98;14.10;;;-3.30;81.60;;;;;;5070408;28;20597;-76
2024/01/14 09:14:56;;;;;;;29.25;13.40;;;-3.20;80.80;;;;;;5071582;28;20534;-75
2024/01/14 09:17:24;;;;;;;30.80;13.77;;;-2.90;79.90;;;;;;5073655;28;20213;-75
2024/01/14 09:19:51;;;;;;;34.63;13.27;;;-2.80;79.30;;;;;;5069461;28;20297;-74
2024/01/14 09:22:18;;;;;;;29.45;12.98;;;-2.60;77.10;;;;;;5068151;28;20662;-75
2024/01/14 09:24:45;;;;;;;33.28;15.77;;;-2.70;76.90;;;;;;5070960;28;20198;-76
2024/01/14 09:27:13;;;;;;;33.88;15.30;;;-2.60;76.30;;;;;;5070560;28;20190;-75
2024/01/14 09:29:43;;;;;;;30.48;14.07;;;-2.60;75.80;;;;;;5068566;28;20209;-74
2024/01/14 09:32:10;;;;;;;27.58;12.57;;;-2.40;74.20;;;;;;5067281;28;20590;-75
2024/01/14 09:34:39;;;;;;;32.88;13.48;;;-2.40;74.00;;;;;;5063325;28;20611;-75
2024/01/14 09:37:06;;;;;;;39.17;16.75;;;-2.30;74.50;;;;;;5070254;28;20225;-75
2024/01/14 09:39:33;;;;;;;42.50;17.98;;;-2.30;73.50;;;;;;5069815;28;20268;-74
2024/01/14 09:42:08;;;;;;;30.67;16.23;;;-2.30;73.50;;;;;;5070558;28;20228;-75
2024/01/14 09:44:35;;;;;;;26.13;12.05;;;-2.30;72.80;;;;;;5070347;28;20235;-74
2024/01/14 09:47:03;;;;;;;39.72;14.48;;;-2.20;73.20;;;;;;5070283;28;20222;-75
2024/01/14 09:49:31;;;;;;;21.23;11.30;;;-2.10;72.70;;;;;;5070515;28;20273;-76
2024/01/14 09:52:03;;;;;;;33.72;13.30;;;-2.10;72.50;;;;;;5070699;28;20581;-75
2024/01/14 09:54:31;;;;;;;30.55;13.43;;;-2.00;71.60;;;;;;5070029;28;20222;-75
2024/01/14 09:57:03;;;;;;;29.50;12.65;;;-2.00;71.70;;;;;;5070616;28;20186;-74
2024/01/14 09:59:37;;;;;;;28.17;12.38;;;-2.00;71.10;;;;;;5067692;28;20210;-75
2024/01/14 10:02:05;;;;;;;29.27;12.32;;;-1.90;71.60;;;;;;5069442;28;20272;-75
2024/01/14 10:04:32;;;;;;;31.25;14.80;;;-1.80;72.20;;;;;;5070632;28;20703;-75
2024/01/14 10:07:00;;;;;;;30.55;13.15;;;-1.70;72.00;;;;;;5070603;28;20186;-74
2024/01/14 10:09:27;;;;;;;33.97;14.70;;;-1.60;70.70;;;;;;5065423;28;20702;-74
2024/01/14 10:11:54;;;;;;;24.60;13.30;;;-1.50;70.60;;;;;;5070292;28;20256;-75
2024/01/14 10:14:26;;;;;;;28.85;13.85;;;-1.40;70.60;;;;;;5069269;28;20248;-75
2024/01/14 10:16:55;;;;;;;22.63;12.70;;;-1.20;70.80;;;;;;5070009;28;20196;-75
2024/01/14 10:19:22;;;;;;;29.77;14.40;;;-1.00;70.40;;;;;;5069921;28;20305;-75
2024/01/14 10:21:49;;;;;;;30.35;16.77;;;-0.80;68.80;;;;;;5070433;28;20244;-76
2024/01/14 10:24:17;;;;;;;27.38;14.00;;;-0.80;67.10;;;;;;5068538;28;20547;-75
2024/01/14 10:26:45;;;;;;;31.38;13.25;;;-0.80;66.40;;;;;;5070883;28;20591;-74
2024/01/14 10:29:12;;;;;;;25.63;13.05;;;-0.70;67.70;;;;;;5069723;28;20281;-75
2024/01/14 10:31:39;;;;;;;27.92;12.43;;;-0.60;67.20;;;;;;5070134;28;20237;-75
2024/01/14 10:34:06;;;;;;;29.73;13.88;;;-0.40;66.40;;;;;;5073074;28;20186;-74
2024/01/14 10:36:34;;;;;;;28.15;14.15;;;-0.20;65.70;;;;;;5073603;28;20293;-74
2024/01/14 10:39:01;;;;;;;24.95;11.38;;;0.00;65.80;;;;;;5074591;28;20274;-75
2024/01/14 10:41:30;;;;;;;25.75;12.90;;;0.20;64.40;;;;;;5074374;28;20216;-75
2024/01/14 10:43:57;;;;;;;25.52;13.25;;;0.30;63.70;;;;;;5074509;28;20277;-75
2024/01/14 10:46:30;;;;;;;29.80;13.05;;;0.70;63.60;;;;;;5073724;28;20221;-75
2024/01/14 10:49:04;;;;;;;31.10;14.13;;;1.30;62.60;;;;;;5070833;28;20281;-75
2024/01/14 10:51:32;;;;;;;27.52;13.57;;;1.80;60.20;;;;;;5073319;28;20274;-74
2024/01/14 10:54:09;;;;;;;28.52;12.65;;;2.20;58.50;;;;;;5071015;28;20349;-75
2024/01/14 10:56:46;;;;;;;25.38;14.30;;;2.50;57.30;;;;;;5073950;28;20202;-75
2024/01/14 10:59:14;;;;;;;25.27;14.07;;;2.60;56.10;;;;;;5072538;28;20681;-75
2024/01/14 11:01:48;;;;;;;26.02;13.60;;;2.60;55.20;;;;;;5069506;28;20226;-76
2024/01/14 11:04:17;;;;;;;24.23;15.32;;;2.50;54.90;;;;;;5072817;28;20213;-75
2024/01/14 11:06:45;;;;;;;24.52;13.68;;;2.40;54.50;;;;;;5072689;28;20214;-75
2024/01/14 11:09:13;;;;;;;22.95;13.43;;;2.30;54.40;;;;;;5072693;28;20190;-75
2024/01/14 11:11:54;;;;;;;30.60;14.90;;;2.20;54.60;;;;;;5073326;28;20276;-75
2024/01/14 11:14:28;;;;;;;32.53;17.15;;;2.20;55.00;;;;;;5073357;28;20198;-75
2024/01/14 11:17:03;;;;;;;28.05;14.23;;;2.30;54.80;;;;;;5072757;28;20684;-74
2024/01/14 11:19:34;;;;;;;25.58;14.10;;;2.40;55.40;;;;;;5073649;28;20288;-73
2024/01/14 11:22:17;;;;;;;30.58;13.63;;;2.50;54.50;;;;;;5074099;28;20182;-74
2024/01/14 11:24:44;;;;;;;26.40;13.75;;;2.60;54.60;;;;;;5072585;28;20217;-75
2024/01/14 11:27:16;;;;;;;30.27;14.52;;;2.70;53.50;;;;;;5074039;28;20285;-75
2024/01/14 11:29:43;;;;;;;22.15;13.02;;;2.60;53.30;;;;;;5072132;28;20198;-74
2024/01/14 11:32:11;;;;;;;26.63;13.75;;;2.60;53.00;;;;;;5092990;28;20173;-75
2024/01/14 11:34:59;;;;;;;24.67;13.30;;;2.60;52.80;;;;;;5088747;28;20639;-75
2024/01/14 11:37:47;;;;;;;24.63;13.07;;;2.50;53.00;;;;;;5076152;28;20552;-75
2024/01/14 11:40:16;;;;;;;30.38;15.27;;;2.60;53.00;;;;;;5070731;28;20682;-75
2024/01/14 11:42:50;;;;;;;25.63;14.55;;;3.00;53.10;;;;;;5075708;28;20198;-75
2024/01/14 11:45:38;;;;;;;26.45;13.35;;;3.20;52.20;;;;;;5074526;28;20178;-75
2024/01/14 11:48:06;;;;;;;28.38;15.98;;;3.40;51.80;;;;;;5076038;28;20178;-75
2024/01/14 11:50:34;;;;;;;28.10;13.73;;;3.80;52.10;;;;;;5075565;28;20197;-75
2024/01/14 11:53:04;;;;;;;29.05;14.07;;;4.20;51.50;;;;;;5075671;28;20193;-75
2024/01/14 11:55:33;;;;;;;25.30;12.55;;;4.80;51.10;;;;;;5075531;28;20212;-75
2024/01/14 11:58:13;;;;;;;23.55;13.77;;;5.40;50.40;;;;;;5075837;28;20269;-74
2024/01/14 12:00:41;;;;;;;27.50;15.20;;;5.90;48.70;;;;;;5075944;28;20284;-74
2024/01/14 12:03:09;;;;;;;21.60;14.02;;;6.30;48.20;;;;;;5075701;28;20239;-74
2024/01/14 12:05:37;;;;;;;26.52;15.38;;;6.70;47.30;;;;;;5075861;28;20263;-74
2024/01/14 12:08:04;;;;;;;24.63;15.23;;;7.00;46.00;;;;;;5075286;28;20186;-74
2024/01/14 12:10:32;;;;;;;24.63;15.43;;;7.20;45.10;;;;;;5075376;28;20225;-74
2024/01/14 12:13:00;;;;;;;28.00;16.50;;;7.30;44.10;;;;;;5075552;28;20707;-74
2024/01/14 12:15:29;;;;;;;22.02;13.40;;;7.20;43.30;;;;;;5075345;28;20291;-74
2024/01/14 12:17:57;;;;;;;26.48;15.10;;;7.10;42.90;;;;;;5075432;28;20222;-74
2024/01/14 12:20:26;;;;;;;22.23;14.57;;;6.90;42.80;;;;;;5075179;28;20206;-74
2024/01/14 12:22:57;;;;;;;22.15;14.40;;;6.70;42.90;;;;;;5074702;28;20545;-73
2024/01/14 12:25:24;;;;;;;25.63;14.25;;;6.50;43.40;;;;;;5095630;28;20528;-74
2024/01/14 12:27:51;;;;;;;26.65;15.15;;;6.30;43.60;;;;;;5077576;28;20217;-74
2024/01/14 12:30:34;;;;;;;26.98;15.98;;;6.30;43.60;;;;;;5075165;28;20272;-74
2024/01/14 12:33:05;;;;;;;30.52;20.63;;;6.40;43.80;;;;;;5074818;28;20214;-74
2024/01/14 12:35:36;;;;;;;26.02;14.50;;;6.50;44.20;;;;;;5074788;28;20228;-74
2024/01/14 12:38:04;;;;;;;31.13;17.25;;;6.60;43.60;;;;;;5075863;28;20239;-74
2024/01/14 12:40:32;;;;;;;48.92;23.40;;;6.70;43.50;;;;;;5074466;28;20232;-74